Time;durP1;ratioP1;P1;durP2;ratioP2;P2;SDS_P1;SDS_P2;PMS_P1;PMS_P2;Temp;Humidity;BMP_temperature;BMP_pressure;BME280_temperature;BME280_humidity;BME280_pressure;Samples;Min_cycle;Max_cycle;Signal;HPM_P1;HPM_P2
2023/01/27 00:00:47;;;;;;;9.63;6.40;;;;;;;;;;5032475;28;20034;-73
2023/01/27 00:03:13;;;;;;;11.10;6.43;;;;;;;;;;5031093;28;20041;-73
2023/01/27 00:05:39;;;;;;;11.33;6.90;;;;;;;;;;5032045;28;20041;-73
2023/01/27 00:08:05;;;;;;;10.30;6.53;;;;;;;;;;5032159;28;20491;-73
2023/01/27 00:10:31;;;;;;;11.67;6.47;;;;;;;;;;5031872;28;20037;-73
2023/01/27 00:15:42;;;;;;;9.60;5.93;;;;;;;;;;5032178;28;20395;-73
2023/01/27 00:18:09;;;;;;;9.87;5.83;;;;;;;;;;5032193;28;20041;-73
2023/01/27 00:26:08;;;;;;;8.73;5.70;;;;;;;;;;5036232;28;20076;-73
2023/01/27 00:28:38;;;;;;;10.63;5.60;;;;;;;;;;5035752;28;20048;-73
2023/01/27 00:31:05;;;;;;;8.77;5.33;;;;;;;;;;5035708;28;20061;-73
2023/01/27 00:33:31;;;;;;;9.20;5.30;;;;;;;;;;5035644;28;20065;-73
2023/01/27 00:36:05;;;;;;;10.07;6.40;;;;;;;;;;5035889;28;20029;-73
2023/01/27 00:38:32;;;;;;;8.83;5.50;;;;;;;;;;5035819;28;20033;-73
2023/01/27 00:43:42;;;;;;;8.57;5.40;;;;;;;;;;5035544;28;20087;-73
2023/01/27 00:46:09;;;;;;;7.80;5.30;;;;;;;;;;5035629;28;20045;-73
2023/01/27 00:48:35;;;;;;;9.63;5.37;;;;;;;;;;5035688;28;20033;-73
2023/01/27 00:51:01;;;;;;;8.70;5.17;;;;;;;;;;5035460;28;20037;-72
2023/01/27 00:53:27;;;;;;;11.10;6.37;;;;;;;;;;5035604;28;20099;-73
2023/01/27 00:55:53;;;;;;;9.63;5.13;;;;;;;;;;5035623;28;20030;-72
2023/01/27 00:58:21;;;;;;;9.47;5.40;;;;;;;;;;5035389;28;20037;-73
2023/01/27 01:00:47;;;;;;;9.37;5.70;;;;;;;;;;5035386;28;20029;-72
2023/01/27 01:03:13;;;;;;;8.07;4.90;;;;;;;;;;5035447;28;20035;-73
2023/01/27 01:05:39;;;;;;;10.40;5.03;;;;;;;;;;5035003;28;20038;-72
2023/01/27 01:08:05;;;;;;;8.27;5.10;;;;;;;;;;5035197;28;20099;-72
2023/01/27 01:10:31;;;;;;;8.20;4.80;;;;;;;;;;5035027;28;20124;-73
2023/01/27 01:12:57;;;;;;;9.80;5.37;;;;;;;;;;5034907;28;20036;-72
2023/01/27 01:15:23;;;;;;;10.30;5.70;;;;;;;;;;5034999;28;20033;-73
2023/01/27 01:17:49;;;;;;;10.17;6.07;;;;;;;;;;5035299;28;20108;-73
2023/01/27 01:20:16;;;;;;;8.17;5.07;;;;;;;;;;5033835;28;20099;-72
2023/01/27 01:22:42;;;;;;;8.30;5.50;;;;;;;;;;5034738;28;20037;-73
2023/01/27 01:25:08;;;;;;;7.63;5.00;;;;;;;;;;5033416;28;20046;-73
2023/01/27 01:27:34;;;;;;;8.00;5.13;;;;;;;;;;5034693;28;20034;-72
2023/01/27 01:30:00;;;;;;;8.37;5.00;;;;;;;;;;5034405;28;20068;-73
2023/01/27 01:32:26;;;;;;;9.00;5.83;;;;;;;;;;5033962;28;20041;-73
2023/01/27 01:34:52;;;;;;;8.93;5.33;;;;;;;;;;5034739;28;20035;-72
2023/01/27 01:37:18;;;;;;;8.73;4.83;;;;;;;;;;5034893;28;20044;-73
2023/01/27 01:39:44;;;;;;;10.27;5.90;;;;;;;;;;5034702;28;20037;-72
2023/01/27 01:42:10;;;;;;;8.90;5.17;;;;;;;;;;5034616;28;20112;-72
2023/01/27 01:44:36;;;;;;;8.87;4.80;;;;;;;;;;5034507;28;20030;-73
2023/01/27 01:47:03;;;;;;;11.10;5.70;;;;;;;;;;5033213;28;20068;-73
2023/01/27 01:49:31;;;;;;;7.70;4.90;;;;;;;;;;5034831;28;20041;-73
2023/01/27 01:51:59;;;;;;;9.43;5.07;;;;;;;;;;5033123;28;20029;-73
2023/01/27 01:54:35;;;;;;;9.13;4.90;;;;;;;;;;5034520;28;20091;-73
2023/01/27 01:57:09;;;;;;;10.63;5.60;;;;;;;;;;5033081;28;20061;-73
2023/01/27 01:59:37;;;;;;;9.03;5.37;;;;;;;;;;5030582;28;20057;-73
2023/01/27 02:02:05;;;;;;;9.13;4.93;;;;;;;;;;5031687;28;20121;-73
2023/01/27 02:04:35;;;;;;;13.00;5.60;;;;;;;;;;5032449;28;20037;-72
2023/01/27 02:07:04;;;;;;;10.60;5.00;;;;;;;;;;5033749;28;20052;-73
2023/01/27 02:09:30;;;;;;;8.33;4.90;;;;;;;;;;5033911;28;20064;-73
2023/01/27 02:12:00;;;;;;;9.20;5.30;;;;;;;;;;5033891;28;20041;-73
2023/01/27 02:14:26;;;;;;;8.40;4.93;;;;;;;;;;5033656;28;20545;-73
2023/01/27 02:16:52;;;;;;;9.27;5.37;;;;;;;;;;5034031;28;20487;-72
2023/01/27 02:19:22;;;;;;;7.77;5.00;;;;;;;;;;5033974;28;20034;-72
2023/01/27 02:21:50;;;;;;;7.73;4.83;;;;;;;;;;5033668;28;20479;-72
2023/01/27 02:24:16;;;;;;;7.60;4.63;;;;;;;;;;5033579;28;20117;-72
2023/01/27 02:26:43;;;;;;;10.33;5.10;;;;;;;;;;5033539;28;20051;-72
2023/01/27 02:29:11;;;;;;;8.43;4.90;;;;;;;;;;5033414;28;20037;-73
2023/01/27 02:31:37;;;;;;;7.57;4.43;;;;;;;;;;5033503;28;20029;-73
2023/01/27 02:34:08;;;;;;;8.63;4.60;;;;;;;;;;5033220;28;20034;-73
2023/01/27 02:36:37;;;;;;;8.20;4.07;;;;;;;;;;5033145;28;20022;-72
2023/01/27 02:39:05;;;;;;;9.90;4.47;;;;;;;;;;5033578;28;20030;-72
2023/01/27 02:41:40;;;;;;;7.53;4.47;;;;;;;;;;5033349;28;20041;-73
2023/01/27 02:44:07;;;;;;;8.40;4.77;;;;;;;;;;5032800;28;20030;-72
2023/01/27 02:46:33;;;;;;;7.77;4.60;;;;;;;;;;5033268;28;20041;-73
2023/01/27 02:48:59;;;;;;;8.23;4.60;;;;;;;;;;5033315;28;20487;-72
2023/01/27 02:51:25;;;;;;;9.70;4.83;;;;;;;;;;5032018;28;20056;-72
2023/01/27 02:53:51;;;;;;;7.30;4.50;;;;;;;;;;5033251;28;20022;-73
2023/01/27 02:56:17;;;;;;;7.90;4.63;;;;;;;;;;5031407;28;20128;-73
2023/01/27 02:58:43;;;;;;;8.63;4.60;;;;;;;;;;5032610;28;20056;-73
2023/01/27 03:01:10;;;;;;;10.63;5.03;;;;;;;;;;5033211;28;20025;-72
2023/01/27 03:03:42;;;;;;;7.70;4.23;;;;;;;;;;5032924;28;20541;-72
2023/01/27 03:06:08;;;;;;;7.38;4.43;;;;;;;;;;5032547;28;20055;-73
2023/01/27 03:08:34;;;;;;;8.40;4.90;;;;;;;;;;5031462;28;20091;-72
2023/01/27 03:11:00;;;;;;;10.97;4.93;;;;;;;;;;5031558;28;20034;-73
2023/01/27 03:13:27;;;;;;;9.17;5.23;;;;;;;;;;5033001;28;20078;-73
2023/01/27 03:18:38;;;;;;;10.93;5.30;;;;;;;;;;5033251;28;20100;-72
2023/01/27 03:21:05;;;;;;;12.30;5.70;;;;;;;;;;5032821;28;20029;-72
2023/01/27 03:23:35;;;;;;;12.10;5.67;;;;;;;;;;5033092;28;20112;-73
2023/01/27 03:26:02;;;;;;;20.83;5.63;;;;;;;;;;5031458;28;20045;-73
2023/01/27 03:28:28;;;;;;;10.87;5.77;;;;;;;;;;5032494;28;20075;-73
2023/01/27 03:31:04;;;;;;;10.40;5.77;;;;;;;;;;5032690;28;20095;-73
2023/01/27 03:33:30;;;;;;;7.53;4.80;;;;;;;;;;5032607;28;20034;-73
2023/01/27 03:46:55;;;;;;;9.80;5.57;;;;;;;;;;5032700;28;20398;-73
2023/01/27 03:49:21;;;;;;;10.83;5.70;;;;;;;;;;5032510;28;20033;-73
2023/01/27 03:51:47;;;;;;;16.10;6.23;;;;;;;;;;5032497;28;20495;-73
2023/01/27 03:54:13;;;;;;;10.70;5.57;;;;;;;;;;5032382;28;20108;-73
2023/01/27 03:56:39;;;;;;;7.93;5.27;;;;;;;;;;5035262;28;20036;-72
2023/01/27 03:59:05;;;;;;;7.23;4.90;;;;;;;;;;5034852;28;20050;-73
2023/01/27 04:01:31;;;;;;;10.30;5.40;;;;;;;;;;5036485;28;20065;-73
2023/01/27 04:06:57;;;;;;;9.23;5.40;;;;;;;;;;5036203;28;20120;-73
2023/01/27 04:09:27;;;;;;;9.87;5.97;;;;;;;;;;5036586;28;20079;-73
2023/01/27 04:11:54;;;;;;;7.80;5.00;;;;;;;;;;5035098;28;20132;-72
2023/01/27 04:14:20;;;;;;;9.73;5.47;;;;;;;;;;5036109;28;20041;-72
2023/01/27 04:16:46;;;;;;;8.00;5.30;;;;;;;;;;5034996;28;20034;-73
2023/01/27 04:19:13;;;;;;;9.60;5.30;;;;;;;;;;5036419;28;20034;-73
2023/01/27 04:21:39;;;;;;;8.13;5.33;;;;;;;;;;5035707;28;20072;-73
2023/01/27 04:24:15;;;;;;;6.87;4.73;;;;;;;;;;5036198;28;20499;-73
2023/01/27 04:26:45;;;;;;;9.00;5.00;;;;;;;;;;5035673;28;20037;-73
2023/01/27 04:29:12;;;;;;;8.23;5.00;;;;;;;;;;5036108;28;20041;-73
2023/01/27 04:31:38;;;;;;;8.77;5.33;;;;;;;;;;5034740;28;20037;-72
2023/01/27 04:34:05;;;;;;;8.77;5.57;;;;;;;;;;5035793;28;20040;-72
2023/01/27 04:36:31;;;;;;;10.23;5.47;;;;;;;;;;5035705;28;20510;-73
2023/01/27 04:38:57;;;;;;;7.73;5.30;;;;;;;;;;5035978;28;20117;-72
2023/01/27 04:41:23;;;;;;;7.40;4.93;;;;;;;;;;5034365;28;20037;-73
2023/01/27 04:43:49;;;;;;;9.37;5.53;;;;;;;;;;5035338;28;20036;-72
2023/01/27 04:46:15;;;;;;;9.43;5.60;;;;;;;;;;5035431;28;20518;-73
2023/01/27 04:48:41;;;;;;;9.83;5.10;;;;;;;;;;5035925;28;20025;-73
2023/01/27 04:51:07;;;;;;;8.33;4.93;;;;;;;;;;5035798;28;20095;-72
2023/01/27 04:53:33;;;;;;;9.00;5.67;;;;;;;;;;5035707;28;20072;-72
2023/01/27 04:56:12;;;;;;;7.83;5.03;;;;;;;;;;5035577;28;20144;-73
2023/01/27 04:58:38;;;;;;;9.47;5.37;;;;;;;;;;5035110;28;20124;-73
2023/01/27 05:01:04;;;;;;;8.60;5.80;;;;;;;;;;5035358;28;20040;-74
2023/01/27 05:03:30;;;;;;;9.40;6.23;;;;;;;;;;5034033;28;20041;-74
2023/01/27 05:05:56;;;;;;;13.07;6.27;;;;;;;;;;5033964;28;20108;-74
2023/01/27 05:08:22;;;;;;;10.87;6.27;;;;;;;;;;5033788;28;20034;-73
2023/01/27 05:10:51;;;;;;;11.87;6.90;;;;;;;;;;5034757;28;20045;-73
2023/01/27 05:13:17;;;;;;;11.00;5.97;;;;;;;;;;5035191;28;20041;-73
2023/01/27 05:15:43;;;;;;;10.20;6.27;;;;;;;;;;5034928;28;20454;-73
2023/01/27 05:18:09;;;;;;;9.23;6.07;;;;;;;;;;5035086;28;20060;-73
2023/01/27 05:20:35;;;;;;;9.87;5.60;;;;;;;;;;5034736;28;20030;-73
2023/01/27 05:25:46;;;;;;;8.93;5.77;;;;;;;;;;5034731;28;20181;-72
2023/01/27 05:28:12;;;;;;;9.13;4.97;;;;;;;;;;5034989;28;20085;-73
2023/01/27 05:30:38;;;;;;;8.37;5.37;;;;;;;;;;5034534;28;20033;-72
2023/01/27 05:33:04;;;;;;;8.13;5.47;;;;;;;;;;5034855;28;20026;-73
2023/01/27 05:35:34;;;;;;;7.93;5.07;;;;;;;;;;5034550;28;20034;-73
2023/01/27 05:38:00;;;;;;;7.67;5.23;;;;;;;;;;5034727;28;20029;-72
2023/01/27 05:40:26;;;;;;;10.33;5.70;;;;;;;;;;5034695;28;20419;-72
2023/01/27 05:42:52;;;;;;;10.17;4.87;;;;;;;;;;5034668;28;20022;-72
2023/01/27 05:45:19;;;;;;;8.63;5.17;;;;;;;;;;5034738;28;20053;-72
2023/01/27 05:47:49;;;;;;;7.93;4.87;;;;;;;;;;5034586;28;20049;-72
2023/01/27 05:50:15;;;;;;;10.30;5.53;;;;;;;;;;5034515;28;20045;-73
2023/01/27 05:52:41;;;;;;;10.03;6.03;;;;;;;;;;5034451;28;20033;-73
2023/01/27 05:55:07;;;;;;;10.03;5.73;;;;;;;;;;5033940;28;20040;-73
2023/01/27 05:57:33;;;;;;;7.67;5.63;;;;;;;;;;5034094;28;20029;-73
2023/01/27 05:59:59;;;;;;;9.30;5.00;;;;;;;;;;5034013;28;20085;-72
2023/01/27 06:02:25;;;;;;;7.60;4.87;;;;;;;;;;5034231;28;20029;-73
2023/01/27 06:04:52;;;;;;;7.47;4.60;;;;;;;;;;5033997;28;20044;-72
2023/01/27 06:07:18;;;;;;;9.23;5.83;;;;;;;;;;5034159;28;20096;-73
2023/01/27 06:09:44;;;;;;;9.93;6.50;;;;;;;;;;5034029;28;20033;-72
2023/01/27 06:12:10;;;;;;;9.10;5.40;;;;;;;;;;5034015;28;20044;-73
2023/01/27 06:14:36;;;;;;;8.70;5.43;;;;;;;;;;5034035;28;20069;-72
2023/01/27 06:17:02;;;;;;;15.47;5.70;;;;;;;;;;5032288;28;20045;-73
2023/01/27 06:19:28;;;;;;;7.80;4.70;;;;;;;;;;5033300;28;20109;-73
2023/01/27 06:21:54;;;;;;;9.93;5.20;;;;;;;;;;5033878;28;20120;-72
2023/01/27 06:24:20;;;;;;;7.57;4.70;;;;;;;;;;5034028;28;20037;-72
2023/01/27 06:26:46;;;;;;;9.37;5.63;;;;;;;;;;5033653;28;20052;-73
2023/01/27 06:29:12;;;;;;;9.23;4.77;;;;;;;;;;5033963;28;20086;-73
2023/01/27 06:31:38;;;;;;;7.60;4.30;;;;;;;;;;5033533;28;20124;-73
2023/01/27 06:34:05;;;;;;;9.50;4.93;;;;;;;;;;5033919;28;20557;-73
2023/01/27 06:36:31;;;;;;;8.10;4.93;;;;;;;;;;5032768;28;20395;-73
2023/01/27 06:38:57;;;;;;;8.87;5.33;;;;;;;;;;5033579;28;20037;-73
2023/01/27 06:41:23;;;;;;;7.30;4.53;;;;;;;;;;5032222;28;20030;-73
2023/01/27 06:43:49;;;;;;;7.30;4.30;;;;;;;;;;5033631;28;20116;-73
2023/01/27 06:46:16;;;;;;;6.53;4.30;;;;;;;;;;5033160;28;20045;-73
2023/01/27 06:48:42;;;;;;;7.50;4.50;;;;;;;;;;5033331;28;20455;-73
2023/01/27 06:51:08;;;;;;;6.67;4.10;;;;;;;;;;5034163;28;20045;-73
2023/01/27 06:53:36;;;;;;;11.40;4.53;;;;;;;;;;5033243;28;20029;-72
2023/01/27 06:56:02;;;;;;;6.20;3.80;;;;;;;;;;5032841;28;20039;-74
2023/01/27 06:58:29;;;;;;;6.93;4.03;;;;;;;;;;5031459;28;20498;-73
2023/01/27 07:00:55;;;;;;;5.80;3.33;;;;;;;;;;5032926;28;20032;-72
2023/01/27 07:03:21;;;;;;;6.43;3.50;;;;;;;;;;5032955;28;20029;-72
2023/01/27 07:05:47;;;;;;;10.00;3.57;;;;;;;;;;5032727;28;20087;-73
2023/01/27 07:08:13;;;;;;;6.23;3.63;;;;;;;;;;5032480;28;20099;-73
2023/01/27 07:10:39;;;;;;;6.17;3.50;;;;;;;;;;5032636;28;20037;-72
2023/01/27 07:13:06;;;;;;;9.37;3.40;;;;;;;;;;5032975;28;20030;-72
2023/01/27 07:15:32;;;;;;;8.20;3.60;;;;;;;;;;5032409;28;20460;-72
2023/01/27 07:17:59;;;;;;;7.00;3.27;;;;;;;;;;5032568;28;20453;-73
2023/01/27 07:20:28;;;;;;;6.73;3.20;;;;;;;;;;5032507;28;20038;-72
2023/01/27 07:23:04;;;;;;;5.77;3.20;;;;;;;;;;5032870;28;20116;-73
2023/01/27 07:25:31;;;;;;;5.33;3.00;;;;;;;;;;5032849;28;20045;-73
2023/01/27 07:27:57;;;;;;;4.70;2.57;;;;;;;;;;5032176;28;20164;-73
2023/01/27 07:30:24;;;;;;;7.03;2.73;;;;;;;;;;5030363;28;20112;-73
2023/01/27 07:32:50;;;;;;;4.37;3.07;;;;;;;;;;5032517;28;20403;-73
2023/01/27 07:35:16;;;;;;;24.87;4.30;;;;;;;;;;5032590;28;20112;-73
2023/01/27 07:37:42;;;;;;;7.27;2.67;;;;;;;;;;5032649;28;20152;-72
2023/01/27 07:40:09;;;;;;;4.30;2.60;;;;;;;;;;5031713;28;20038;-72
2023/01/27 07:42:35;;;;;;;4.80;2.30;;;;;;;;;;5031368;28;20030;-72
2023/01/27 07:45:01;;;;;;;9.27;2.80;;;;;;;;;;5029906;28;20033;-72
2023/01/27 07:47:27;;;;;;;7.43;2.90;;;;;;;;;;5030095;28;20033;-73
2023/01/27 07:49:53;;;;;;;4.37;2.40;;;;;;;;;;5031612;28;20104;-72
2023/01/27 07:52:19;;;;;;;4.63;2.90;;;;;;;;;;5031801;28;20479;-71
2023/01/27 07:54:45;;;;;;;4.70;2.93;;;;;;;;;;5031763;28;20083;-72
2023/01/27 07:57:12;;;;;;;4.93;2.73;;;;;;;;;;5031398;28;20033;-72
2023/01/27 07:59:38;;;;;;;7.57;2.60;;;;;;;;;;5031061;28;20124;-72
2023/01/27 08:02:04;;;;;;;4.73;2.67;;;;;;;;;;5031291;28;20491;-72
2023/01/27 08:04:30;;;;;;;4.50;2.63;;;;;;;;;;5031486;28;20492;-72
2023/01/27 08:06:56;;;;;;;8.30;3.07;;;;;;;;;;5029324;28;20156;-72
2023/01/27 08:09:22;;;;;;;4.17;2.57;;;;;;;;;;5029507;28;20037;-72
2023/01/27 08:11:48;;;;;;;4.63;2.80;;;;;;;;;;5030553;28;20041;-72
2023/01/27 08:14:14;;;;;;;4.17;2.30;;;;;;;;;;5031273;28;20029;-73
2023/01/27 08:16:40;;;;;;;5.07;2.30;;;;;;;;;;5031169;28;20037;-72
2023/01/27 08:19:06;;;;;;;3.80;2.30;;;;;;;;;;5031514;28;20033;-72
2023/01/27 08:21:32;;;;;;;6.87;2.10;;;;;;;;;;5031266;28;20483;-72
2023/01/27 08:23:59;;;;;;;4.40;2.60;;;;;;;;;;5031657;28;20041;-72
2023/01/27 08:26:25;;;;;;;4.97;2.40;;;;;;;;;;5031355;28;20042;-72
2023/01/27 08:28:51;;;;;;;4.00;2.23;;;;;;;;;;5031266;28;20468;-72
2023/01/27 08:31:18;;;;;;;6.77;2.23;;;;;;;;;;5031421;28;20088;-72
2023/01/27 08:33:45;;;;;;;7.37;2.70;;;;;;;;;;5031088;28;20072;-72
2023/01/27 08:36:15;;;;;;;3.70;2.30;;;;;;;;;;5031141;28;20044;-72
2023/01/27 08:38:41;;;;;;;4.50;2.33;;;;;;;;;;5031153;28;20072;-72
2023/01/27 08:41:10;;;;;;;3.43;2.23;;;;;;;;;;5031476;28;20033;-72
2023/01/27 08:43:36;;;;;;;2.97;1.87;;;;;;;;;;5032067;28;20065;-73
2023/01/27 08:46:03;;;;;;;4.77;1.80;;;;;;;;;;5032429;28;20107;-72
2023/01/27 08:48:30;;;;;;;4.27;2.17;;;;;;;;;;5031601;28;20037;-73
2023/01/27 08:50:56;;;;;;;2.73;1.60;;;;;;;;;;5033191;28;20033;-72
2023/01/27 08:53:23;;;;;;;9.80;2.00;;;;;;;;;;5034703;28;20037;-73
2023/01/27 08:55:49;;;;;;;3.00;2.00;;;;;;;;;;5034902;28;20106;-73
2023/01/27 08:58:16;;;;;;;2.93;1.90;;;;;;;;;;5034260;28;20112;-75
2023/01/27 09:00:42;;;;;;;3.33;2.10;;;;;;;;;;5033330;28;20040;-75
2023/01/27 09:03:08;;;;;;;6.10;2.00;;;;;;;;;;5034890;28;20501;-73
2023/01/27 09:05:35;;;;;;;3.33;2.17;;;;;;;;;;5034450;28;20088;-74
2023/01/27 09:08:01;;;;;;;5.00;2.30;;;;;;;;;;5034203;28;20116;-73
2023/01/27 09:10:27;;;;;;;4.90;3.30;;;;;;;;;;5034542;28;20030;-74
2023/01/27 09:12:54;;;;;;;6.17;2.93;;;;;;;;;;5030447;28;20068;-75
2023/01/27 09:15:20;;;;;;;4.63;3.23;;;;;;;;;;5032082;28;20030;-75
2023/01/27 09:17:46;;;;;;;6.83;2.80;;;;;;;;;;5033033;28;20421;-76
2023/01/27 09:20:12;;;;;;;3.93;2.60;;;;;;;;;;5033748;28;20052;-76
2023/01/27 09:22:39;;;;;;;4.53;2.30;;;;;;;;;;5034557;28;20118;-76
2023/01/27 09:25:06;;;;;;;4.60;2.70;;;;;;;;;;5033104;28;20034;-75
2023/01/27 09:27:33;;;;;;;3.93;2.37;;;;;;;;;;5047176;28;20037;-76
2023/01/27 09:29:59;;;;;;;4.30;2.27;;;;;;;;;;5054654;28;20033;-75
2023/01/27 09:32:25;;;;;;;4.50;2.77;;;;;;;;;;5054327;28;20071;-75
2023/01/27 09:34:51;;;;;;;4.70;2.63;;;;;;;;;;5054261;28;20063;-75
2023/01/27 09:37:17;;;;;;;3.30;2.30;;;;;;;;;;5054032;28;20040;-76
2023/01/27 09:39:45;;;;;;;6.00;2.60;;;;;;;;;;5054536;28;20037;-75
2023/01/27 09:42:36;;;;;;;4.87;3.20;;;;;;;;;;5053575;28;20055;-75
2023/01/27 09:45:14;;;;;;;5.73;3.13;;;;;;;;;;5054225;28;20029;-75
2023/01/27 09:47:40;;;;;;;8.20;3.40;;;;;;;;;;5054000;28;20100;-75
2023/01/27 09:50:18;;;;;;;5.17;2.90;;;;;;;;;;5053256;28;20033;-75
2023/01/27 09:53:03;;;;;;;6.93;2.97;;;;;;;;;;5052929;28;20582;-75
2023/01/27 09:55:29;;;;;;;5.73;2.57;;;;;;;;;;5052918;28;20029;-75
2023/01/27 09:57:55;;;;;;;4.33;3.10;;;;;;;;;;5051298;28;20032;-75
2023/01/27 10:00:21;;;;;;;6.83;3.00;;;;;;;;;;5052257;28;20420;-75
2023/01/27 10:03:06;;;;;;;4.37;3.00;;;;;;;;;;5051849;28;20506;-75
2023/01/27 10:05:41;;;;;;;8.63;2.90;;;;;;;;;;5052028;28;20132;-75
2023/01/27 10:08:20;;;;;;;4.47;3.03;;;;;;;;;;5050915;28;20039;-75
2023/01/27 10:11:11;;;;;;;5.63;3.03;;;;;;;;;;5050973;28;20114;-76
2023/01/27 10:13:44;;;;;;;4.53;2.93;;;;;;;;;;5049630;28;20487;-76
2023/01/27 10:16:28;;;;;;;4.45;2.83;;;;;;;;;;5051070;28;20033;-75
2023/01/27 10:19:01;;;;;;;4.07;2.60;;;;;;;;;;5050147;28;20504;-75
2023/01/27 10:21:36;;;;;;;5.72;2.45;;;;;;;;;;5050224;28;20036;-76
2023/01/27 10:24:11;;;;;;;6.27;2.57;;;;;;;;;;5051281;28;20475;-75
2023/01/27 10:26:49;;;;;;;4.40;2.70;;;;;;;;;;5051630;28;20466;-75
2023/01/27 10:29:18;;;;;;;4.73;2.20;;;;;;;;;;5050540;28;20033;-74
2023/01/27 10:32:01;;;;;;;6.53;2.60;;;;;;;;;;5049893;28;20035;-75
2023/01/27 10:34:32;;;;;;;5.32;2.65;;;;;;;;;;5049994;28;20044;-75
2023/01/27 10:37:05;;;;;;;4.73;2.80;;;;;;;;;;5051525;28;20035;-75
2023/01/27 10:39:38;;;;;;;5.83;3.00;;;;;;;;;;5051177;28;20033;-75
2023/01/27 10:42:05;;;;;;;;;;;;;;;;;;5052326;28;20025;-75
2023/01/27 10:44:33;;;;;;;5.50;2.90;;;;;;;;;;5051761;28;19928;-75
2023/01/27 10:47:11;;;;;;;4.60;2.70;;;;;;;;;;5050812;28;20123;-75
2023/01/27 10:49:40;;;;;;;4.63;2.77;;;;;;;;;;5050807;28;20041;-75
2023/01/27 10:52:06;;;;;;;4.07;2.40;;;;;;;;;;5050934;28;20040;-75
2023/01/27 10:54:38;;;;;;;3.47;2.70;;;;;;;;;;5051613;28;20033;-75
2023/01/27 10:57:12;;;;;;;4.63;2.70;;;;;;;;;;5051491;28;20029;-75
2023/01/27 10:59:38;;;;;;;4.10;2.70;;;;;;;;;;5049793;28;20068;-75
2023/01/27 11:02:11;;;;;;;6.67;3.27;;;;;;;;;;5051984;28;20479;-75
2023/01/27 11:04:40;;;;;;;4.95;3.33;;;;;;;;;;5049834;28;20082;-75
2023/01/27 11:07:06;;;;;;;4.10;2.80;;;;;;;;;;5052333;28;20591;-75
2023/01/27 11:09:36;;;;;;;5.40;3.10;;;;;;;;;;5040905;28;20025;-75
2023/01/27 11:12:10;;;;;;;5.00;2.70;;;;;;;;;;5038525;28;20041;-75
2023/01/27 11:14:49;;;;;;;4.90;3.47;;;;;;;;;;5052335;28;20498;-75
2023/01/27 11:17:19;;;;;;;4.47;2.60;;;;;;;;;;5052429;28;20139;-75
2023/01/27 11:19:53;;;;;;;4.50;2.93;;;;;;;;;;5052991;28;20166;-76
2023/01/27 11:22:39;;;;;;;4.40;2.73;;;;;;;;;;5052596;28;20106;-75
2023/01/27 11:25:16;;;;;;;4.30;2.83;;;;;;;;;;5052409;28;20040;-76
2023/01/27 11:28:00;;;;;;;10.80;3.03;;;;;;;;;;5052298;28;20045;-76
2023/01/27 11:30:32;;;;;;;4.40;2.73;;;;;;;;;;5054108;28;20044;-76
2023/01/27 11:33:30;;;;;;;5.10;2.47;;;;;;;;;;5052654;28;20033;-75
2023/01/27 11:35:56;;;;;;;4.07;2.67;;;;;;;;;;5029542;28;20030;-76
2023/01/27 11:38:22;;;;;;;4.70;2.70;;;;;;;;;;5052439;28;20037;-75
2023/01/27 11:40:50;;;;;;;4.43;3.00;;;;;;;;;;5052458;28;20044;-76
2023/01/27 11:43:23;;;;;;;8.97;2.93;;;;;;;;;;5052421;28;20029;-75
2023/01/27 11:45:49;;;;;;;5.10;3.38;;;;;;;;;;5052027;28;20103;-75
2023/01/27 11:48:17;;;;;;;4.47;2.80;;;;;;;;;;5052212;28;20037;-76
2023/01/27 11:50:45;;;;;;;4.73;2.80;;;;;;;;;;5052005;28;20029;-75
2023/01/27 11:53:35;;;;;;;4.03;2.63;;;;;;;;;;5052273;28;20421;-75
2023/01/27 11:56:08;;;;;;;5.63;3.13;;;;;;;;;;5052086;28;20498;-75
2023/01/27 11:58:38;;;;;;;5.30;3.25;;;;;;;;;;5052210;28;20091;-75
2023/01/27 12:01:15;;;;;;;5.10;2.83;;;;;;;;;;5052408;28;20383;-76
2023/01/27 12:03:41;;;;;;;3.93;2.80;;;;;;;;;;5052340;28;20041;-75
2023/01/27 12:06:13;;;;;;;6.33;3.30;;;;;;;;;;5052271;28;20072;-75
2023/01/27 12:08:40;;;;;;;4.83;2.60;;;;;;;;;;5052469;28;20041;-75
2023/01/27 12:11:25;;;;;;;6.17;2.90;;;;;;;;;;5051732;28;20116;-76
2023/01/27 12:13:55;;;;;;;6.73;3.30;;;;;;;;;;5050301;28;20035;-76
2023/01/27 12:16:24;;;;;;;4.70;3.17;;;;;;;;;;5048894;28;20136;-75
2023/01/27 12:18:55;;;;;;;7.63;3.17;;;;;;;;;;5054917;28;20065;-75
2023/01/27 12:21:33;;;;;;;5.50;3.10;;;;;;;;;;5056603;28;20111;-75
2023/01/27 12:23:59;;;;;;;4.67;3.03;;;;;;;;;;5056150;28;20107;-75
2023/01/27 12:26:35;;;;;;;5.53;3.40;;;;;;;;;;5056225;28;20103;-76
2023/01/27 12:29:04;;;;;;;4.60;3.50;;;;;;;;;;5054797;28;20037;-75
2023/01/27 12:31:31;;;;;;;4.87;3.17;;;;;;;;;;5056020;28;20091;-74
2023/01/27 12:34:05;;;;;;;4.63;2.83;;;;;;;;;;5056026;28;20034;-75
2023/01/27 12:36:38;;;;;;;6.00;3.40;;;;;;;;;;5056003;28;20051;-73
2023/01/27 12:39:06;;;;;;;4.80;3.10;;;;;;;;;;5053475;28;20069;-75
2023/01/27 12:41:33;;;;;;;5.50;3.10;;;;;;;;;;5051775;28;20048;-75
2023/01/27 12:44:05;;;;;;;4.87;2.80;;;;;;;;;;5053366;28;20025;-75
2023/01/27 12:46:31;;;;;;;4.83;3.33;;;;;;;;;;5055337;28;20041;-75
2023/01/27 12:49:01;;;;;;;5.67;3.63;;;;;;;;;;5054580;28;20342;-75
2023/01/27 12:51:39;;;;;;;6.87;3.73;;;;;;;;;;5055614;28;20041;-75
2023/01/27 12:54:26;;;;;;;5.13;3.77;;;;;;;;;;5055384;28;20033;-75
2023/01/27 12:56:53;;;;;;;5.37;3.70;;;;;;;;;;5054230;28;20151;-75
2023/01/27 12:59:20;;;;;;;5.50;3.60;;;;;;;;;;5055034;28;20041;-76
2023/01/27 13:01:58;;;;;;;4.43;3.23;;;;;;;;;;5052437;28;20026;-75
2023/01/27 13:04:25;;;;;;;5.43;3.13;;;;;;;;;;5050487;28;20065;-75
2023/01/27 13:06:55;;;;;;;5.57;3.57;;;;;;;;;;5055062;28;20102;-74
2023/01/27 13:09:33;;;;;;;4.50;3.33;;;;;;;;;;5050312;28;20029;-75
2023/01/27 13:12:01;;;;;;;5.93;3.87;;;;;;;;;;5053961;28;20029;-75
2023/01/27 13:14:29;;;;;;;5.83;3.20;;;;;;;;;;5055311;28;20025;-75
2023/01/27 13:16:57;;;;;;;6.10;3.27;;;;;;;;;;5055052;28;20450;-75
2023/01/27 13:19:31;;;;;;;8.80;5.10;;;;;;;;;;5053684;28;20033;-75
2023/01/27 13:21:57;;;;;;;6.47;3.63;;;;;;;;;;5052739;28;20103;-74
2023/01/27 13:24:41;;;;;;;5.30;3.03;;;;;;;;;;5052446;28;20072;-74
2023/01/27 13:27:12;;;;;;;3.00;2.20;;;;;;;;;;5051145;28;20713;-74
2023/01/27 13:29:39;;;;;;;6.30;2.93;;;;;;;;;;5054000;28;20033;-75
2023/01/27 13:32:08;;;;;;;8.73;3.10;;;;;;;;;;5053541;28;20032;-76
2023/01/27 13:34:45;;;;;;;4.23;2.10;;;;;;;;;;5054475;28;20033;-76
2023/01/27 13:37:23;;;;;;;8.33;2.70;;;;;;;;;;5054212;28;20040;-76
2023/01/27 13:39:52;;;;;;;23.00;2.83;;;;;;;;;;5054553;28;20128;-76
2023/01/27 13:42:37;;;;;;;8.40;2.83;;;;;;;;;;5053847;28;20108;-76
2023/01/27 13:45:11;;;;;;;9.20;2.53;;;;;;;;;;5051105;28;20060;-78
2023/01/27 13:47:50;;;;;;;7.07;2.30;;;;;;;;;;5050925;28;20099;-75
2023/01/27 13:50:16;;;;;;;12.57;2.57;;;;;;;;;;5053586;28;20033;-76
2023/01/27 13:52:43;;;;;;;4.13;2.60;;;;;;;;;;5054134;28;20043;-76
2023/01/27 13:55:12;;;;;;;6.13;2.77;;;;;;;;;;5054466;28;20037;-75
2023/01/27 13:58:08;;;;;;;13.33;3.00;;;;;;;;;;5054373;28;20032;-74
2023/01/27 14:00:41;;;;;;;5.43;2.87;;;;;;;;;;5039761;28;20410;-80
2023/01/27 14:03:16;;;;;;;5.13;2.20;;;;;;;;;;5054278;28;20033;-75
2023/01/27 14:05:57;;;;;;;8.17;2.73;;;;;;;;;;5054045;28;20037;-76
2023/01/27 14:08:35;;;;;;;8.17;3.30;;;;;;;;;;5054528;28;20033;-75
2023/01/27 14:11:01;;;;;;;5.87;3.37;;;;;;;;;;5054097;28;20458;-75
2023/01/27 14:13:33;;;;;;;5.73;3.03;;;;;;;;;;5053659;28;20037;-78
2023/01/27 14:16:15;;;;;;;3.72;2.80;;;;;;;;;;5053726;28;20040;-75
2023/01/27 14:18:43;;;;;;;4.57;2.83;;;;;;;;;;5053592;28;20036;-75
2023/01/27 14:21:18;;;;;;;5.27;3.00;;;;;;;;;;5053419;28;20036;-76
2023/01/27 14:24:02;;;;;;;3.87;2.57;;;;;;;;;;5053748;28;20079;-75
2023/01/27 14:27:04;;;;;;;4.23;3.07;;;;;;;;;;5053250;28;20072;-72
2023/01/27 14:29:39;;;;;;;3.50;2.40;;;;;;;;;;5011482;28;20135;-71
2023/01/27 14:32:11;;;;;;;4.13;2.47;;;;;;;;;;5047899;28;20048;-71
2023/01/27 14:35:04;;;;;;;5.63;2.87;;;;;;;;;;5053381;28;20091;-71
2023/01/27 14:37:45;;;;;;;6.13;2.60;;;;;;;;;;5037430;28;20036;-73
2023/01/27 14:40:11;;;;;;;4.27;2.73;;;;;;;;;;5052941;28;20029;-74
2023/01/27 14:42:45;;;;;;;6.53;3.27;;;;;;;;;;5053291;28;20487;-72
2023/01/27 14:45:14;;;;;;;6.27;3.30;;;;;;;;;;5053107;28;20025;-72
2023/01/27 14:47:56;;;;;;;4.97;3.20;;;;;;;;;;5053046;28;20041;-72
2023/01/27 14:50:30;;;;;;;4.90;2.93;;;;;;;;;;5053785;28;20103;-72
2023/01/27 14:53:15;;;;;;;22.00;10.60;;;;;;;;;;5053409;28;20044;-72
2023/01/27 14:55:44;;;;;;;10.33;5.67;;;;;;;;;;5051917;28;20035;-72
2023/01/27 14:58:16;;;;;;;10.03;5.40;;;;;;;;;;5052587;28;20402;-72
2023/01/27 15:00:55;;;;;;;10.07;5.85;;;;;;;;;;5053033;28;20111;-72
2023/01/27 15:03:39;;;;;;;24.73;12.70;;;;;;;;;;5048020;28;20124;-71
2023/01/27 15:06:15;;;;;;;7.60;4.67;;;;;;;;;;5039447;28;20046;-71
2023/01/27 15:08:51;;;;;;;23.67;13.50;;;;;;;;;;5049265;28;20075;-71
2023/01/27 15:11:23;;;;;;;8.03;4.60;;;;;;;;;;5048868;28;20033;-71
2023/01/27 15:13:49;;;;;;;7.27;4.57;;;;;;;;;;5051431;28;20033;-70
2023/01/27 15:16:23;;;;;;;12.80;6.70;;;;;;;;;;5046817;28;20256;-71
2023/01/27 15:19:01;;;;;;;8.57;4.53;;;;;;;;;;5052413;28;20036;-70
2023/01/27 15:21:36;;;;;;;7.90;5.47;;;;;;;;;;5053060;28;20041;-70
2023/01/27 15:24:24;;;;;;;17.97;6.53;;;;;;;;;;5052842;28;20037;-70